Commerce, Oklahoma
Current Conditions -  °F | °C
As of 7:15 AM on Thursday 23 Oct 2014 (Local Time) from KGMJ Reporting Station
Light Rain Light Rain  
Wind Chill: 59°   Ceiling: 4500
Heat Index: 59°   Visibility: 10mi
Dew Point: 55°   Wind: 0mph
Humidity: 88%   Direction: NA
Pressure: 30.16"   Gusts: NA
Location:  36.93°N, 94.87°W
Report Text: KGMJ 231215Z AUTO 00000KT 10SM -RA BKN045 OVC100 15/13 A3016 RMK AO2
Loading
Personal Weather Stations






























Interactive Weather Map
Tropical Storm Tracking
New forecast layout! Learn more

10-Day Weather Forecast

Advertisements
Track Severe Weather on mobile